createdAt,value
2019-02-04T00:00:17.235Z,101930.37
2019-02-04T00:02:45.765Z,101939.28
2019-02-04T00:05:14.088Z,101935.07
2019-02-04T00:07:42.360Z,101937.12
2019-02-04T00:10:11.967Z,101938.86
2019-02-04T00:12:40.231Z,101938.84
2019-02-04T00:15:09.433Z,101934.17
2019-02-04T00:17:38.060Z,101938.03
2019-02-04T00:20:09.355Z,101933.33
2019-02-04T00:22:37.613Z,101935.42
2019-02-04T00:25:06.611Z,101928.51
2019-02-04T00:27:34.889Z,101933.61
2019-02-04T00:30:04.788Z,101927.98
2019-02-04T00:32:33.048Z,101921.53
2019-02-04T00:35:01.300Z,101926.59
2019-02-04T00:37:29.559Z,101926.62
2019-02-04T00:39:57.853Z,101935.97
2019-02-04T00:42:26.103Z,101932.98
2019-02-04T00:44:54.375Z,101947.47
2019-02-04T00:47:22.904Z,101953.92
2019-02-04T00:49:51.264Z,101960.77
2019-02-04T00:52:19.529Z,101964.56
2019-02-04T00:54:47.780Z,101965.83
2019-02-04T00:57:16.037Z,101966.24
2019-02-04T00:59:44.306Z,101967.95
2019-02-04T01:02:12.833Z,101967.48
2019-02-04T01:04:41.176Z,101968.32
2019-02-04T01:07:09.501Z,101976.84
2019-02-04T01:09:37.789Z,101967.94
2019-02-04T01:12:06.117Z,101967.94
2019-02-04T01:14:34.385Z,101974.80
2019-02-04T01:17:03.792Z,101982.52
2019-02-04T01:19:32.088Z,101983.70
2019-02-04T01:22:00.356Z,101991.02
2019-02-04T01:24:28.624Z,101984.22
2019-02-04T01:26:56.885Z,101983.39
2019-02-04T01:29:25.142Z,101986.84
2019-02-04T01:31:53.395Z,101983.00
2019-02-04T01:34:21.853Z,101982.07
2019-02-04T01:36:50.124Z,101972.72
2019-02-04T01:39:18.379Z,101983.86
2019-02-04T01:41:46.641Z,101978.34
2019-02-04T01:44:14.901Z,101983.48
2019-02-04T01:46:43.160Z,101980.05
2019-02-04T01:49:11.612Z,101985.08
2019-02-04T01:51:39.874Z,101988.02
2019-02-04T01:54:08.121Z,101991.52
2019-02-04T01:56:36.384Z,101993.61
2019-02-04T01:59:04.655Z,102002.42
2019-02-04T02:01:32.913Z,102001.58
2019-02-04T02:04:01.255Z,102005.06
2019-02-04T02:06:29.512Z,102003.24
2019-02-04T02:08:57.774Z,102005.64
2019-02-04T02:11:26.038Z,102015.44
2019-02-04T02:13:54.314Z,102018.52
2019-02-04T02:16:22.562Z,102024.94
2019-02-04T02:18:50.819Z,102020.78
2019-02-04T02:21:19.156Z,102029.16
2019-02-04T02:23:47.366Z,102032.14
2019-02-04T02:26:15.620Z,102032.23
2019-02-04T02:28:43.900Z,102034.33
2019-02-04T02:31:12.165Z,102035.97
2019-02-04T02:33:40.426Z,102036.83
2019-02-04T02:36:08.882Z,102035.59
2019-02-04T02:38:37.135Z,102036.91
2019-02-04T02:41:05.388Z,102036.92
2019-02-04T02:43:33.665Z,102030.91
2019-02-04T02:46:01.919Z,102033.42
2019-02-04T02:48:30.192Z,102036.80
2019-02-04T02:50:58.454Z,102035.15
2019-02-04T02:53:26.733Z,102040.31
2019-02-04T02:55:54.982Z,102045.86
2019-02-04T02:58:23.252Z,102041.59
2019-02-04T03:00:51.510Z,102035.64
2019-02-04T03:03:19.774Z,102036.44
2019-02-04T03:05:48.047Z,102039.44
2019-02-04T03:08:16.494Z,102045.47
2019-02-04T03:10:44.751Z,102043.31
2019-02-04T03:13:13.010Z,102034.66
2019-02-04T03:15:41.270Z,102038.48
2019-02-04T03:18:09.544Z,102034.62
2019-02-04T03:20:37.794Z,102038.00
2019-02-04T03:23:06.226Z,102034.98
2019-02-04T03:25:34.496Z,102039.72
2019-02-04T03:28:02.743Z,102044.39
2019-02-04T03:30:32.760Z,102040.95
2019-02-04T03:33:01.077Z,102046.48
2019-02-04T03:35:29.348Z,102038.73
2019-02-04T03:37:57.978Z,102034.89
2019-02-04T03:40:28.517Z,102031.04
2019-02-04T03:42:56.851Z,102029.68
2019-02-04T03:45:25.118Z,102034.02
2019-02-04T03:48:04.332Z,102033.55
2019-02-04T03:50:23.715Z,102035.62
2019-02-04T03:52:52.255Z,102034.72
2019-02-04T03:55:20.586Z,102035.16
2019-02-04T03:57:48.859Z,102029.95
2019-02-04T04:00:33.928Z,102029.98
2019-02-04T04:03:02.529Z,102031.18
2019-02-04T04:05:30.803Z,102036.20
2019-02-04T04:07:59.136Z,102040.47
2019-02-04T04:10:27.415Z,102038.74
2019-02-04T04:12:55.751Z,102043.48
2019-02-04T04:15:24.039Z,102049.92
2019-02-04T04:17:52.306Z,102044.38
2019-02-04T04:20:21.041Z,102048.19
2019-02-04T04:22:49.295Z,102056.00
2019-02-04T04:25:18.218Z,102048.72
2019-02-04T04:27:46.550Z,102050.47
2019-02-04T04:30:20.153Z,102046.28
2019-02-04T04:32:48.413Z,102042.88
2019-02-04T04:35:16.820Z,102050.59
2019-02-04T04:37:45.086Z,102048.53
2019-02-04T04:40:15.159Z,102045.98
2019-02-04T04:42:43.638Z,102050.78
2019-02-04T04:45:14.824Z,102046.06
2019-02-04T04:47:43.182Z,102045.25
2019-02-04T04:50:11.422Z,102049.91
2019-02-04T04:52:39.678Z,102048.66
2019-02-04T04:55:13.530Z,102040.98
2019-02-04T04:57:41.792Z,102038.97
2019-02-04T05:00:13.170Z,102043.71
2019-02-04T05:02:41.812Z,102042.55
2019-02-04T05:05:11.931Z,102040.09
2019-02-04T05:07:40.237Z,102035.36
2019-02-04T05:10:11.541Z,102036.18
2019-02-04T05:12:39.801Z,102037.94
2019-02-04T05:15:11.118Z,102045.25
2019-02-04T05:17:39.555Z,102047.05
2019-02-04T05:20:11.177Z,102038.92
2019-02-04T05:22:39.446Z,102044.10
2019-02-04T05:25:08.452Z,102046.67
2019-02-04T05:27:36.714Z,102039.47
2019-02-04T05:30:08.155Z,102048.83
2019-02-04T05:32:36.433Z,102043.23
2019-02-04T05:35:05.001Z,102045.81
2019-02-04T05:37:33.271Z,102045.42
2019-02-04T05:40:01.563Z,102040.28
2019-02-04T05:42:29.807Z,102040.31
2019-02-04T05:44:58.067Z,102038.56
2019-02-04T05:47:26.347Z,102035.17
2019-02-04T05:49:54.617Z,102035.66
2019-02-04T05:52:22.899Z,102035.68
2019-02-04T05:54:51.155Z,102034.91
2019-02-04T05:57:19.446Z,102033.17
2019-02-04T05:59:47.809Z,102031.80
2019-02-04T06:02:16.251Z,102025.85
2019-02-04T06:04:44.531Z,102028.39
2019-02-04T06:07:15.395Z,102031.49
2019-02-04T06:09:42.797Z,102032.72
2019-02-04T06:12:11.080Z,102029.33
2019-02-04T06:14:39.354Z,102039.52
2019-02-04T06:17:07.995Z,102034.44
2019-02-04T06:19:36.272Z,102025.91
2019-02-04T06:22:04.535Z,102029.03
2019-02-04T06:24:32.827Z,102030.38
2019-02-04T06:27:01.106Z,102024.83
2019-02-04T06:29:30.334Z,102027.45
2019-02-04T06:31:58.974Z,102018.30
2019-02-04T06:34:27.265Z,102020.89
2019-02-04T06:36:55.535Z,102029.56
2019-02-04T06:39:23.823Z,102031.69
2019-02-04T06:41:52.074Z,102032.12
2019-02-04T06:44:20.346Z,102027.88
2019-02-04T06:46:48.629Z,102021.92
2019-02-04T06:49:17.152Z,102029.56
2019-02-04T06:51:45.421Z,102024.47
2019-02-04T06:54:13.710Z,102029.12
2019-02-04T06:56:41.965Z,102028.36
2019-02-04T06:59:10.248Z,102021.88
2019-02-04T07:01:38.503Z,102019.75
2019-02-04T07:04:07.175Z,102018.82
2019-02-04T07:06:35.545Z,102021.80
2019-02-04T07:09:05.616Z,102025.28
2019-02-04T07:11:33.874Z,102016.77
2019-02-04T07:14:02.164Z,102012.13
2019-02-04T07:16:30.431Z,102015.98
2019-02-04T07:18:58.904Z,102017.66
2019-02-04T07:21:27.192Z,102016.47
2019-02-04T07:23:55.467Z,102015.22
2019-02-04T07:26:23.748Z,102009.66
2019-02-04T07:28:52.015Z,102009.26
2019-02-04T07:31:20.298Z,102009.31
2019-02-04T07:33:50.257Z,102003.27
2019-02-04T07:36:18.595Z,102000.27
2019-02-04T07:38:46.884Z,101998.64
2019-02-04T07:41:15.161Z,101989.73
2019-02-04T07:43:43.477Z,101987.16
2019-02-04T07:46:11.732Z,101983.34
2019-02-04T07:48:39.990Z,101993.61
2019-02-04T07:51:08.245Z,101996.20
2019-02-04T07:53:36.510Z,101991.45
2019-02-04T07:56:04.784Z,101989.73
2019-02-04T07:58:33.054Z,101988.92
2019-02-04T08:01:03.108Z,101992.76
2019-02-04T08:03:32.118Z,101990.58
2019-02-04T08:06:00.375Z,101984.61
2019-02-04T08:08:28.828Z,101986.33
2019-02-04T08:10:57.083Z,101990.63
2019-02-04T08:13:28.010Z,101996.23
2019-02-04T08:15:56.267Z,101996.70
2019-02-04T08:18:24.550Z,102001.02
2019-02-04T08:20:52.814Z,101994.18
2019-02-04T08:23:21.421Z,101996.77
2019-02-04T08:25:49.688Z,101998.91
2019-02-04T08:28:17.959Z,102000.67
2019-02-04T08:30:46.237Z,101996.37
2019-02-04T08:33:14.498Z,101995.97
2019-02-04T08:35:42.765Z,101990.91
2019-02-04T08:38:11.031Z,101987.88
2019-02-04T08:40:39.273Z,101986.17
2019-02-04T08:43:07.548Z,101988.34
2019-02-04T08:45:35.819Z,101980.31
2019-02-04T08:48:04.221Z,101983.33
2019-02-04T08:50:32.492Z,101980.75
2019-02-04T08:53:00.773Z,101980.80
2019-02-04T08:55:29.033Z,101992.84
2019-02-04T08:57:57.369Z,101992.84
2019-02-04T09:00:26.206Z,101986.86
2019-02-04T09:02:54.472Z,101978.30
2019-02-04T09:05:23.789Z,101972.78
2019-02-04T09:07:52.384Z,101991.23
2019-02-04T09:10:26.628Z,101990.36
2019-02-04T09:12:55.167Z,101982.66
2019-02-04T09:15:23.428Z,101988.29
2019-02-04T09:17:51.867Z,101989.58
2019-02-04T09:20:20.194Z,101993.47
2019-02-04T09:22:48.613Z,101992.22
2019-02-04T09:25:18.608Z,101992.23
2019-02-04T09:27:46.868Z,101991.37
2019-02-04T09:30:23.506Z,101987.09
2019-02-04T09:32:51.779Z,101990.56
2019-02-04T09:35:21.277Z,101989.30
2019-02-04T09:37:49.540Z,101994.04
2019-02-04T09:40:20.535Z,101987.17
2019-02-04T09:42:49.067Z,101991.50
2019-02-04T09:45:17.803Z,101994.51
2019-02-04T09:47:46.226Z,101995.38
2019-02-04T09:50:22.088Z,101990.26
2019-02-04T09:52:50.410Z,101990.22
2019-02-04T09:55:24.017Z,101995.38
2019-02-04T09:57:52.264Z,101993.25
2019-02-04T10:00:22.867Z,101991.97
2019-02-04T10:02:51.123Z,101991.98
2019-02-04T10:05:19.842Z,101995.44
2019-02-04T10:07:48.094Z,101993.75
2019-02-04T10:10:24.714Z,101985.13
2019-02-04T10:12:53.043Z,101984.29
2019-02-04T10:15:23.897Z,101994.62
2019-02-04T10:17:52.223Z,101992.89
2019-02-04T10:20:20.590Z,101990.75
2019-02-04T10:22:49.036Z,101998.06
2019-02-04T10:25:23.231Z,101993.33
2019-02-04T10:27:51.525Z,101993.34
2019-02-04T10:30:22.264Z,101992.89
2019-02-04T10:32:50.603Z,101995.91
2019-02-04T10:35:19.484Z,101989.45
2019-02-04T10:37:49.621Z,101976.52
2019-02-04T10:40:26.437Z,101976.09
2019-02-04T10:42:54.736Z,101979.95
2019-02-04T10:45:23.000Z,101969.63
2019-02-04T10:47:51.374Z,101971.31
2019-02-04T10:50:22.149Z,101960.13
2019-02-04T10:52:50.425Z,101957.53
2019-02-04T10:55:18.754Z,101948.94
2019-02-04T10:57:46.988Z,101955.39
2019-02-04T11:00:18.382Z,101960.11
2019-02-04T11:02:46.656Z,101945.91
2019-02-04T11:05:20.373Z,101945.47
2019-02-04T11:07:48.667Z,101945.47
2019-02-04T11:10:20.190Z,101945.00
2019-02-04T11:12:48.514Z,101938.97
2019-02-04T11:15:17.523Z,101947.16
2019-02-04T11:17:45.779Z,101944.56
2019-02-04T11:20:23.752Z,101942.03
2019-02-04T11:22:52.291Z,101930.76
2019-02-04T11:25:20.830Z,101922.17
2019-02-04T11:27:49.303Z,101923.03
2019-02-04T11:30:20.454Z,101923.44
2019-02-04T11:32:49.176Z,101922.95
2019-02-04T11:35:17.502Z,101914.77
2019-02-04T11:37:45.712Z,101915.19
2019-02-04T11:40:31.214Z,101916.05
2019-02-04T11:42:59.518Z,101910.44
2019-02-04T11:45:28.090Z,101909.16
2019-02-04T11:47:56.360Z,101907.41
2019-02-04T11:50:24.665Z,101906.14
2019-02-04T11:52:52.927Z,101905.70
2019-02-04T11:55:21.364Z,101903.46
2019-02-04T11:57:49.624Z,101906.02
2019-02-04T12:00:25.794Z,101905.16
2019-02-04T12:02:54.886Z,101902.16
2019-02-04T12:05:25.846Z,101909.03
2019-02-04T12:07:54.184Z,101905.95
2019-02-04T12:10:34.022Z,101897.81
2019-02-04T12:13:02.566Z,101901.27
2019-02-04T12:15:30.818Z,101902.56
2019-02-04T12:17:59.075Z,101896.91
2019-02-04T12:20:27.338Z,101899.89
2019-02-04T12:22:55.616Z,101889.12
2019-02-04T12:25:25.711Z,101892.94
2019-02-04T12:27:54.782Z,101885.19
2019-02-04T12:30:25.865Z,101885.54
2019-02-04T12:32:54.238Z,101881.23
2019-02-04T12:35:22.496Z,101894.58
2019-02-04T12:37:50.742Z,101891.56
2019-02-04T12:40:19.013Z,101879.02
2019-02-04T12:42:47.433Z,101889.38
2019-02-04T12:45:26.719Z,101891.94
2019-02-04T12:47:55.145Z,101892.39
2019-02-04T12:50:23.410Z,101887.20
2019-02-04T12:52:51.677Z,101884.61
2019-02-04T12:55:28.189Z,101889.29
2019-02-04T12:57:56.580Z,101887.08
2019-02-04T13:00:29.475Z,101878.00
2019-02-04T13:02:58.111Z,101889.08
2019-02-04T13:05:29.146Z,101882.70
2019-02-04T13:07:57.396Z,101875.01
2019-02-04T13:10:26.102Z,101872.52
2019-02-04T13:12:54.348Z,101885.36
2019-02-04T13:15:24.145Z,101879.34
2019-02-04T13:17:53.031Z,101886.20
2019-02-04T13:20:22.730Z,101868.11
2019-02-04T13:22:51.152Z,101871.97
2019-02-04T13:25:22.307Z,101867.61
2019-02-04T13:27:50.545Z,101862.89
2019-02-04T13:30:21.303Z,101866.33
2019-02-04T13:32:49.568Z,101859.05
2019-02-04T13:35:17.887Z,101868.11
2019-02-04T13:37:46.144Z,101859.50
2019-02-04T13:40:17.621Z,101850.42
2019-02-04T13:42:45.873Z,101844.50
2019-02-04T13:45:18.929Z,101850.92
2019-02-04T13:47:47.502Z,101856.06
2019-02-04T13:50:17.689Z,101844.00
2019-02-04T13:52:46.219Z,101853.92
2019-02-04T13:55:17.414Z,101858.64
2019-02-04T13:57:45.668Z,101853.51
2019-02-04T14:00:15.666Z,101850.03
2019-02-04T14:02:43.988Z,101848.33
2019-02-04T14:05:12.310Z,101847.90
2019-02-04T14:07:40.779Z,101851.00
2019-02-04T14:10:26.086Z,101857.39
2019-02-04T14:12:54.408Z,101855.66
2019-02-04T14:15:23.219Z,101845.36
2019-02-04T14:17:51.475Z,101843.28
2019-02-04T14:20:22.065Z,101842.83
2019-02-04T14:22:53.311Z,101842.42
2019-02-04T14:25:20.524Z,101837.71
2019-02-04T14:27:48.779Z,101833.40
2019-02-04T14:30:34.856Z,101833.40
2019-02-04T14:33:03.390Z,101829.17
2019-02-04T14:35:31.708Z,101833.46
2019-02-04T14:38:00.116Z,101822.30
2019-02-04T14:40:28.432Z,101812.38
2019-02-04T14:43:08.770Z,101820.13
2019-02-04T14:45:46.120Z,101804.63
2019-02-04T14:48:33.737Z,101814.55
2019-02-04T14:51:07.961Z,101805.95
2019-02-04T14:53:55.449Z,101798.27
2019-02-04T14:56:47.153Z,101798.28
2019-02-04T14:59:18.588Z,101794.00
2019-02-04T15:02:17.109Z,101782.81
2019-02-04T15:05:12.714Z,101779.77
2019-02-04T15:08:12.479Z,101775.89
2019-02-04T15:10:43.896Z,101774.15
2019-02-04T15:13:46.670Z,101769.84
2019-02-04T15:16:29.616Z,101756.50
2019-02-04T15:19:27.885Z,101765.98
2019-02-04T15:21:59.395Z,101771.59
2019-02-04T15:24:39.863Z,101773.28
2019-02-04T15:27:29.079Z,101765.91
2019-02-04T15:30:12.303Z,101774.08
2019-02-04T15:32:46.147Z,101774.95
2019-02-04T15:35:23.109Z,101762.53
2019-02-04T15:41:12.213Z,101769.04
2019-02-04T15:43:52.737Z,101774.22
2019-02-04T15:46:36.640Z,101766.48
2019-02-04T15:49:31.991Z,101770.78
2019-02-04T15:52:01.076Z,101761.73
2019-02-04T15:54:29.331Z,101762.16
2019-02-04T15:56:57.585Z,101755.37
2019-02-04T15:59:25.843Z,101760.48
2019-02-04T16:01:54.379Z,101758.38
2019-02-04T16:04:35.768Z,101764.76
2019-02-04T16:07:06.256Z,101764.33
2019-02-04T16:09:34.493Z,101777.77
2019-02-04T16:12:02.756Z,101778.17
2019-02-04T16:14:31.282Z,101777.25
2019-02-04T16:16:59.609Z,101773.39
2019-02-04T16:19:27.868Z,101771.73
2019-02-04T16:21:56.137Z,101781.14
2019-02-04T16:24:24.379Z,101782.45
2019-02-04T16:26:52.628Z,101780.78
2019-02-04T16:29:21.214Z,101776.47
2019-02-04T16:31:49.520Z,101776.05
2019-02-04T16:34:17.788Z,101767.00
2019-02-04T16:36:46.040Z,101767.86
2019-02-04T16:39:14.292Z,101757.09
2019-02-04T16:41:42.529Z,101750.12
2019-02-04T16:44:10.789Z,101746.80
2019-02-04T16:46:39.119Z,101745.87
2019-02-04T16:49:07.362Z,101751.92
2019-02-04T16:51:35.610Z,101761.83
2019-02-04T16:54:03.926Z,101758.38
2019-02-04T16:56:32.195Z,101770.88
2019-02-04T16:59:00.430Z,101768.73
2019-02-04T17:01:28.696Z,101779.05
2019-02-04T17:03:57.145Z,101769.90
2019-02-04T17:06:25.384Z,101769.08
2019-02-04T17:08:53.636Z,101771.25
2019-02-04T17:11:21.898Z,101763.48
2019-02-04T17:13:50.484Z,101778.97
2019-02-04T17:16:18.729Z,101774.74
2019-02-04T17:18:46.973Z,101776.45
2019-02-04T17:21:15.230Z,101783.30
2019-02-04T17:23:43.479Z,101763.47
2019-02-04T17:26:11.718Z,101760.03
2019-02-04T17:28:39.959Z,101763.48
2019-02-04T17:31:08.219Z,101740.21
2019-02-04T17:33:36.481Z,101737.19
2019-02-04T17:36:05.088Z,101747.55
2019-02-04T17:38:33.347Z,101742.39
2019-02-04T17:41:01.620Z,101736.34
2019-02-04T17:43:29.855Z,101744.10
2019-02-04T17:45:58.124Z,101739.77
2019-02-04T17:48:26.375Z,101736.77
2019-02-04T17:50:54.626Z,101737.22
2019-02-04T17:53:33.602Z,101731.58
2019-02-04T17:55:52.876Z,101734.63
2019-02-04T17:58:21.119Z,101732.86
2019-02-04T18:00:50.902Z,101727.26
2019-02-04T18:03:19.324Z,101730.28
2019-02-04T18:05:47.605Z,101724.70
2019-02-04T18:08:16.192Z,101720.84
2019-02-04T18:10:44.438Z,101724.69
2019-02-04T18:13:12.696Z,101717.33
2019-02-04T18:15:41.035Z,101726.84
2019-02-04T18:18:09.358Z,101711.73
2019-02-04T18:20:37.610Z,101716.90
2019-02-04T18:23:06.133Z,101706.12
2019-02-04T18:25:34.430Z,101709.55
2019-02-04T18:28:02.636Z,101707.87
2019-02-04T18:30:31.191Z,101705.30
2019-02-04T18:32:59.445Z,101699.70
2019-02-04T18:35:27.973Z,101693.28
2019-02-04T18:37:56.227Z,101687.23
2019-02-04T18:40:24.768Z,101677.77
2019-02-04T18:42:53.410Z,101673.95
2019-02-04T18:45:36.020Z,101670.52
2019-02-04T18:48:05.210Z,101670.45
2019-02-04T18:50:33.827Z,101660.12
2019-02-04T18:53:02.082Z,101642.84
2019-02-04T18:55:32.199Z,101660.05
2019-02-04T18:58:00.486Z,101649.27
2019-02-04T19:00:31.048Z,101654.80
2019-02-04T19:03:00.544Z,101646.22
2019-02-04T19:05:29.345Z,101662.14
2019-02-04T19:07:57.665Z,101646.22
2019-02-04T19:10:25.914Z,101643.17
2019-02-04T19:12:54.154Z,101643.20
2019-02-04T19:15:25.298Z,101637.19
2019-02-04T19:17:58.815Z,101646.22
2019-02-04T19:20:27.141Z,101657.45
2019-02-04T19:22:55.391Z,101659.58
2019-02-04T19:25:23.666Z,101663.48
2019-02-04T19:27:52.650Z,101667.37
2019-02-04T19:30:32.376Z,101672.12
2019-02-04T19:33:00.632Z,101670.42
2019-02-04T19:35:30.361Z,101676.05
2019-02-04T19:37:58.687Z,101666.55
2019-02-04T19:40:26.933Z,101675.59
2019-02-04T19:42:55.208Z,101678.19
2019-02-04T19:45:25.700Z,101673.05
2019-02-04T19:47:54.304Z,101680.42
2019-02-04T19:50:25.741Z,101681.30
2019-02-04T19:52:54.010Z,101683.89
2019-02-04T19:55:22.572Z,101682.20
2019-02-04T19:57:51.767Z,101684.78
2019-02-04T20:00:21.267Z,101676.16
2019-02-04T20:02:50.731Z,101681.75
2019-02-04T20:05:20.936Z,101671.39
2019-02-04T20:07:49.363Z,101668.30
2019-02-04T20:10:19.460Z,101676.03
2019-02-04T20:12:47.703Z,101673.46
2019-02-04T20:15:23.761Z,101674.73
2019-02-04T20:17:53.711Z,101657.93
2019-02-04T20:20:22.696Z,101657.92
2019-02-04T20:22:50.966Z,101663.47
2019-02-04T20:25:27.047Z,101660.03
2019-02-04T20:27:55.867Z,101655.26
2019-02-04T20:30:28.247Z,101658.73
2019-02-04T20:32:58.215Z,101658.73
2019-02-04T20:35:28.165Z,101664.34
2019-02-04T20:37:56.443Z,101653.97
2019-02-04T20:40:26.048Z,101662.12
2019-02-04T20:42:54.291Z,101657.41
2019-02-04T20:45:22.943Z,101668.62
2019-02-04T20:47:54.385Z,101657.86
2019-02-04T20:50:28.218Z,101670.32
2019-02-04T20:52:57.587Z,101671.23
2019-02-04T20:55:29.349Z,101672.08
2019-02-04T20:57:57.969Z,101664.77
2019-02-04T21:00:28.645Z,101668.62
2019-02-04T21:02:56.960Z,101673.38
2019-02-04T21:05:27.462Z,101671.66
2019-02-04T21:07:55.718Z,101671.23
2019-02-04T21:10:26.686Z,101663.47
2019-02-04T21:12:55.231Z,101682.33
2019-02-04T21:15:23.847Z,101667.75
2019-02-04T21:17:52.246Z,101675.08
2019-02-04T21:20:26.316Z,101679.84
2019-02-04T21:22:54.562Z,101672.52
2019-02-04T21:25:22.814Z,101669.05
2019-02-04T21:27:51.415Z,101667.77
2019-02-04T21:30:27.498Z,101666.05
2019-02-04T21:32:56.013Z,101664.73
2019-02-04T21:35:24.264Z,101671.61
2019-02-04T21:37:52.515Z,101674.21
2019-02-04T21:40:21.043Z,101676.77
2019-02-04T21:42:49.581Z,101677.58
2019-02-04T21:45:19.797Z,101679.73
2019-02-04T21:47:48.059Z,101681.89
2019-02-04T21:50:27.183Z,101678.45
2019-02-04T21:52:55.447Z,101680.22
2019-02-04T21:55:24.347Z,101686.69
2019-02-04T21:57:52.662Z,101690.60
2019-02-04T22:00:25.940Z,101686.75
2019-02-04T22:02:54.193Z,101694.11
2019-02-04T22:05:27.447Z,101692.41
2019-02-04T22:07:55.690Z,101676.47
2019-02-04T22:10:25.888Z,101692.40
2019-02-04T22:12:54.129Z,101695.84
2019-02-04T22:15:22.486Z,101691.98
2019-02-04T22:17:50.709Z,101685.57
2019-02-04T22:20:20.111Z,101678.71
2019-02-04T22:22:48.356Z,101684.77
2019-02-04T22:25:22.230Z,101671.41
2019-02-04T22:27:50.469Z,101673.98
2019-02-04T22:30:20.662Z,101670.57
2019-02-04T22:32:48.943Z,101665.84
2019-02-04T22:35:17.211Z,101668.41
2019-02-04T22:37:45.480Z,101665.02
2019-02-04T22:40:17.064Z,101674.05
2019-02-04T22:42:45.293Z,101669.31
2019-02-04T22:45:17.447Z,101666.73
2019-02-04T22:47:45.677Z,101665.45
2019-02-04T22:50:21.668Z,101664.58
2019-02-04T22:52:50.012Z,101675.02
2019-02-04T22:55:18.701Z,101675.02
2019-02-04T22:57:46.940Z,101676.75
2019-02-04T23:00:40.608Z,101676.75
2019-02-04T23:03:08.926Z,101681.55
2019-02-04T23:05:37.514Z,101679.39
2019-02-04T23:08:06.216Z,101671.22
2019-02-04T23:10:34.463Z,101673.80
2019-02-04T23:13:02.721Z,101679.44
2019-02-04T23:15:30.978Z,101663.53
2019-02-04T23:17:59.253Z,101672.14
2019-02-04T23:20:27.783Z,101676.86
2019-02-04T23:22:56.034Z,101680.75
2019-02-04T23:25:24.297Z,101679.03
2019-02-04T23:27:52.551Z,101674.31
2019-02-04T23:30:20.878Z,101684.67
2019-02-04T23:32:49.136Z,101682.52
2019-02-04T23:35:17.407Z,101676.58
2019-02-04T23:37:45.690Z,101682.18
2019-02-04T23:40:16.348Z,101683.06
2019-02-04T23:42:44.624Z,101684.39
2019-02-04T23:45:12.997Z,101685.69
2019-02-04T23:47:41.255Z,101684.02
2019-02-04T23:50:16.293Z,101690.48
2019-02-04T23:52:44.542Z,101677.59
2019-02-04T23:55:13.749Z,101687.48
2019-02-04T23:57:42.040Z,101682.78
